sensor_id;sensor_type;location;lat;lon;timestamp;P1;durP1;ratioP1;P2;durP2;ratioP2
12118;SDS011;6123;48.864;9.200;2023-12-14T00:00:21;1.77;;;1.67;;
12118;SDS011;6123;48.864;9.200;2023-12-14T00:02:47;1.90;;;1.20;;
12118;SDS011;6123;48.864;9.200;2023-12-14T00:05:13;1.80;;;1.70;;
12118;SDS011;6123;48.864;9.200;2023-12-14T00:07:39;2.17;;;1.90;;
12118;SDS011;6123;48.864;9.200;2023-12-14T00:10:05;1.80;;;1.70;;
12118;SDS011;6123;48.864;9.200;2023-12-14T00:12:31;1.90;;;1.80;;
12118;SDS011;6123;48.864;9.200;2023-12-14T00:14:57;1.65;;;1.55;;
12118;SDS011;6123;48.864;9.200;2023-12-14T00:17:23;1.67;;;1.58;;
12118;SDS011;6123;48.864;9.200;2023-12-14T00:19:49;1.95;;;1.85;;
12118;SDS011;6123;48.864;9.200;2023-12-14T00:22:15;2.78;;;1.85;;
12118;SDS011;6123;48.864;9.200;2023-12-14T00:24:41;1.88;;;1.65;;
12118;SDS011;6123;48.864;9.200;2023-12-14T00:27:07;2.25;;;1.98;;
12118;SDS011;6123;48.864;9.200;2023-12-14T00:29:33;1.95;;;1.85;;
12118;SDS011;6123;48.864;9.200;2023-12-14T00:31:59;2.40;;;2.13;;
12118;SDS011;6123;48.864;9.200;2023-12-14T00:34:25;3.20;;;2.00;;
12118;SDS011;6123;48.864;9.200;2023-12-14T00:36:51;2.50;;;2.13;;
12118;SDS011;6123;48.864;9.200;2023-12-14T00:39:17;2.13;;;1.90;;
12118;SDS011;6123;48.864;9.200;2023-12-14T00:41:43;2.35;;;2.10;;
12118;SDS011;6123;48.864;9.200;2023-12-14T00:44:09;2.38;;;1.92;;
12118;SDS011;6123;48.864;9.200;2023-12-14T00:46:35;1.80;;;1.70;;
12118;SDS011;6123;48.864;9.200;2023-12-14T00:49:00;2.00;;;1.80;;
12118;SDS011;6123;48.864;9.200;2023-12-14T00:51:27;1.92;;;1.83;;
12118;SDS011;6123;48.864;9.200;2023-12-14T00:53:53;2.42;;;1.77;;
12118;SDS011;6123;48.864;9.200;2023-12-14T00:56:19;2.85;;;2.28;;
12118;SDS011;6123;48.864;9.200;2023-12-14T00:58:45;2.30;;;2.10;;
12118;SDS011;6123;48.864;9.200;2023-12-14T01:01:11;3.25;;;2.20;;
12118;SDS011;6123;48.864;9.200;2023-12-14T01:03:37;3.00;;;2.30;;
12118;SDS011;6123;48.864;9.200;2023-12-14T01:06:03;1.98;;;1.88;;
12118;SDS011;6123;48.864;9.200;2023-12-14T01:08:29;2.13;;;1.88;;
12118;SDS011;6123;48.864;9.200;2023-12-14T01:10:55;1.83;;;1.73;;
12118;SDS011;6123;48.864;9.200;2023-12-14T01:13:21;2.22;;;1.73;;
12118;SDS011;6123;48.864;9.200;2023-12-14T01:15:47;1.90;;;1.80;;
12118;SDS011;6123;48.864;9.200;2023-12-14T01:18:13;1.98;;;1.77;;
12118;SDS011;6123;48.864;9.200;2023-12-14T01:20:39;2.05;;;1.83;;
12118;SDS011;6123;48.864;9.200;2023-12-14T01:23:05;2.05;;;1.77;;
12118;SDS011;6123;48.864;9.200;2023-12-14T01:25:31;4.13;;;1.77;;
12118;SDS011;6123;48.864;9.200;2023-12-14T01:27:57;2.10;;;2.00;;
12118;SDS011;6123;48.864;9.200;2023-12-14T01:30:22;2.03;;;1.80;;
12118;SDS011;6123;48.864;9.200;2023-12-14T01:32:48;1.77;;;1.67;;
12118;SDS011;6123;48.864;9.200;2023-12-14T01:35:14;4.25;;;1.98;;
12118;SDS011;6123;48.864;9.200;2023-12-14T01:37:40;2.13;;;1.90;;
12118;SDS011;6123;48.864;9.200;2023-12-14T01:40:06;2.35;;;2.15;;
12118;SDS011;6123;48.864;9.200;2023-12-14T01:42:32;2.33;;;2.17;;
12118;SDS011;6123;48.864;9.200;2023-12-14T01:44:58;2.45;;;2.25;;
12118;SDS011;6123;48.864;9.200;2023-12-14T01:47:24;2.10;;;2.00;;
12118;SDS011;6123;48.864;9.200;2023-12-14T01:49:50;3.20;;;2.20;;
12118;SDS011;6123;48.864;9.200;2023-12-14T01:52:17;2.10;;;1.88;;
12118;SDS011;6123;48.864;9.200;2023-12-14T01:54:43;2.15;;;1.92;;
12118;SDS011;6123;48.864;9.200;2023-12-14T01:57:08;2.65;;;1.90;;
12118;SDS011;6123;48.864;9.200;2023-12-14T01:59:34;2.38;;;1.63;;
12118;SDS011;6123;48.864;9.200;2023-12-14T02:02:00;1.50;;;1.40;;
12118;SDS011;6123;48.864;9.200;2023-12-14T02:04:27;2.08;;;1.88;;
12118;SDS011;6123;48.864;9.200;2023-12-14T02:06:54;2.38;;;1.50;;
12118;SDS011;6123;48.864;9.200;2023-12-14T02:09:20;4.28;;;1.80;;
12118;SDS011;6123;48.864;9.200;2023-12-14T02:11:46;2.05;;;1.48;;
12118;SDS011;6123;48.864;9.200;2023-12-14T02:14:12;3.05;;;1.70;;
12118;SDS011;6123;48.864;9.200;2023-12-14T02:16:38;2.85;;;1.85;;
12118;SDS011;6123;48.864;9.200;2023-12-14T02:19:04;2.47;;;1.90;;
12118;SDS011;6123;48.864;9.200;2023-12-14T02:21:30;1.70;;;1.60;;
12118;SDS011;6123;48.864;9.200;2023-12-14T02:23:56;3.55;;;1.52;;
12118;SDS011;6123;48.864;9.200;2023-12-14T02:26:22;1.70;;;1.60;;
12118;SDS011;6123;48.864;9.200;2023-12-14T02:28:49;4.35;;;1.50;;
12118;SDS011;6123;48.864;9.200;2023-12-14T02:31:17;1.85;;;1.67;;
12118;SDS011;6123;48.864;9.200;2023-12-14T02:33:43;1.63;;;1.42;;
12118;SDS011;6123;48.864;9.200;2023-12-14T02:36:09;3.08;;;1.80;;
12118;SDS011;6123;48.864;9.200;2023-12-14T02:38:35;1.95;;;1.60;;
12118;SDS011;6123;48.864;9.200;2023-12-14T02:41:01;2.42;;;1.80;;
12118;SDS011;6123;48.864;9.200;2023-12-14T02:43:27;2.13;;;1.70;;
12118;SDS011;6123;48.864;9.200;2023-12-14T02:45:53;2.92;;;2.10;;
12118;SDS011;6123;48.864;9.200;2023-12-14T02:48:20;2.20;;;1.70;;
12118;SDS011;6123;48.864;9.200;2023-12-14T02:50:46;1.98;;;1.77;;
12118;SDS011;6123;48.864;9.200;2023-12-14T02:53:12;3.55;;;1.75;;
12118;SDS011;6123;48.864;9.200;2023-12-14T02:55:38;2.33;;;1.70;;
12118;SDS011;6123;48.864;9.200;2023-12-14T02:58:04;2.95;;;1.80;;
12118;SDS011;6123;48.864;9.200;2023-12-14T03:00:29;2.95;;;1.80;;
12118;SDS011;6123;48.864;9.200;2023-12-14T03:02:55;1.80;;;1.65;;
12118;SDS011;6123;48.864;9.200;2023-12-14T03:05:22;1.75;;;1.40;;
12118;SDS011;6123;48.864;9.200;2023-12-14T03:07:48;2.30;;;1.80;;
12118;SDS011;6123;48.864;9.200;2023-12-14T03:10:13;2.42;;;1.67;;
12118;SDS011;6123;48.864;9.200;2023-12-14T03:12:39;1.92;;;1.60;;
12118;SDS011;6123;48.864;9.200;2023-12-14T03:15:05;1.88;;;1.70;;
12118;SDS011;6123;48.864;9.200;2023-12-14T03:17:31;2.15;;;1.70;;
12118;SDS011;6123;48.864;9.200;2023-12-14T03:19:58;1.95;;;1.70;;
12118;SDS011;6123;48.864;9.200;2023-12-14T03:22:24;1.77;;;1.60;;
12118;SDS011;6123;48.864;9.200;2023-12-14T03:24:50;1.42;;;1.33;;
12118;SDS011;6123;48.864;9.200;2023-12-14T03:27:16;1.52;;;1.42;;
12118;SDS011;6123;48.864;9.200;2023-12-14T03:29:42;1.75;;;1.65;;
12118;SDS011;6123;48.864;9.200;2023-12-14T03:32:07;2.63;;;1.50;;
12118;SDS011;6123;48.864;9.200;2023-12-14T03:34:33;2.35;;;1.45;;
12118;SDS011;6123;48.864;9.200;2023-12-14T03:36:59;2.28;;;1.95;;
12118;SDS011;6123;48.864;9.200;2023-12-14T03:39:25;2.47;;;2.05;;
12118;SDS011;6123;48.864;9.200;2023-12-14T03:41:52;1.92;;;1.70;;
12118;SDS011;6123;48.864;9.200;2023-12-14T03:44:18;1.70;;;1.60;;
12118;SDS011;6123;48.864;9.200;2023-12-14T03:46:44;1.52;;;1.42;;
12118;SDS011;6123;48.864;9.200;2023-12-14T03:49:10;2.50;;;1.70;;
12118;SDS011;6123;48.864;9.200;2023-12-14T03:51:36;1.63;;;1.52;;
12118;SDS011;6123;48.864;9.200;2023-12-14T03:54:02;2.00;;;1.80;;
12118;SDS011;6123;48.864;9.200;2023-12-14T03:56:28;1.70;;;1.60;;
12118;SDS011;6123;48.864;9.200;2023-12-14T03:58:54;2.13;;;1.80;;
12118;SDS011;6123;48.864;9.200;2023-12-14T04:01:22;1.50;;;1.40;;
12118;SDS011;6123;48.864;9.200;2023-12-14T04:03:48;6.10;;;2.10;;
12118;SDS011;6123;48.864;9.200;2023-12-14T04:06:13;1.77;;;1.67;;
12118;SDS011;6123;48.864;9.200;2023-12-14T04:08:42;2.10;;;1.80;;
12118;SDS011;6123;48.864;9.200;2023-12-14T04:11:08;2.03;;;1.90;;
12118;SDS011;6123;48.864;9.200;2023-12-14T04:13:34;2.17;;;1.83;;
12118;SDS011;6123;48.864;9.200;2023-12-14T04:16:01;2.25;;;1.67;;
12118;SDS011;6123;48.864;9.200;2023-12-14T04:18:27;2.30;;;2.10;;
12118;SDS011;6123;48.864;9.200;2023-12-14T04:20:53;1.92;;;1.80;;
12118;SDS011;6123;48.864;9.200;2023-12-14T04:23:19;1.92;;;1.80;;
12118;SDS011;6123;48.864;9.200;2023-12-14T04:25:45;2.10;;;1.80;;
12118;SDS011;6123;48.864;9.200;2023-12-14T04:28:11;1.95;;;1.80;;
12118;SDS011;6123;48.864;9.200;2023-12-14T04:30:37;2.08;;;1.98;;
12118;SDS011;6123;48.864;9.200;2023-12-14T04:33:03;2.15;;;2.05;;
12118;SDS011;6123;48.864;9.200;2023-12-14T04:35:29;1.80;;;1.70;;
12118;SDS011;6123;48.864;9.200;2023-12-14T04:37:56;2.60;;;2.20;;
12118;SDS011;6123;48.864;9.200;2023-12-14T04:40:22;1.85;;;1.75;;
12118;SDS011;6123;48.864;9.200;2023-12-14T04:42:48;2.28;;;1.98;;
12118;SDS011;6123;48.864;9.200;2023-12-14T04:45:14;2.90;;;2.10;;
12118;SDS011;6123;48.864;9.200;2023-12-14T04:47:41;2.10;;;1.90;;
12118;SDS011;6123;48.864;9.200;2023-12-14T04:50:07;2.72;;;2.30;;
12118;SDS011;6123;48.864;9.200;2023-12-14T04:52:34;2.30;;;2.10;;
12118;SDS011;6123;48.864;9.200;2023-12-14T04:55:00;2.33;;;2.13;;
12118;SDS011;6123;48.864;9.200;2023-12-14T04:57:26;2.38;;;2.17;;
12118;SDS011;6123;48.864;9.200;2023-12-14T04:59:51;2.15;;;2.00;;
12118;SDS011;6123;48.864;9.200;2023-12-14T05:02:17;1.90;;;1.80;;
12118;SDS011;6123;48.864;9.200;2023-12-14T05:04:43;2.45;;;2.33;;
12118;SDS011;6123;48.864;9.200;2023-12-14T05:07:09;2.83;;;2.28;;
12118;SDS011;6123;48.864;9.200;2023-12-14T05:09:35;2.70;;;2.03;;
12118;SDS011;6123;48.864;9.200;2023-12-14T05:12:01;2.47;;;2.10;;
12118;SDS011;6123;48.864;9.200;2023-12-14T05:14:27;2.30;;;2.10;;
12118;SDS011;6123;48.864;9.200;2023-12-14T05:16:54;2.22;;;1.88;;
12118;SDS011;6123;48.864;9.200;2023-12-14T05:19:20;2.63;;;2.10;;
12118;SDS011;6123;48.864;9.200;2023-12-14T05:21:46;3.42;;;2.13;;
12118;SDS011;6123;48.864;9.200;2023-12-14T05:24:12;2.08;;;1.98;;
12118;SDS011;6123;48.864;9.200;2023-12-14T05:26:38;2.25;;;1.92;;
12118;SDS011;6123;48.864;9.200;2023-12-14T05:29:04;2.30;;;2.10;;
12118;SDS011;6123;48.864;9.200;2023-12-14T05:31:30;2.53;;;2.33;;
12118;SDS011;6123;48.864;9.200;2023-12-14T05:33:56;2.60;;;2.40;;
12118;SDS011;6123;48.864;9.200;2023-12-14T05:36:22;2.83;;;2.55;;
12118;SDS011;6123;48.864;9.200;2023-12-14T05:38:48;3.97;;;3.15;;
12118;SDS011;6123;48.864;9.200;2023-12-14T05:41:14;3.97;;;3.42;;
12118;SDS011;6123;48.864;9.200;2023-12-14T05:43:40;5.95;;;2.67;;
12118;SDS011;6123;48.864;9.200;2023-12-14T05:46:06;4.15;;;3.60;;
12118;SDS011;6123;48.864;9.200;2023-12-14T05:48:32;3.58;;;3.28;;
12118;SDS011;6123;48.864;9.200;2023-12-14T05:50:59;3.78;;;3.40;;
12118;SDS011;6123;48.864;9.200;2023-12-14T05:53:26;3.80;;;3.50;;
12118;SDS011;6123;48.864;9.200;2023-12-14T05:55:52;4.03;;;3.67;;
12118;SDS011;6123;48.864;9.200;2023-12-14T05:58:18;3.90;;;3.58;;
12118;SDS011;6123;48.864;9.200;2023-12-14T06:00:44;3.83;;;3.53;;
12118;SDS011;6123;48.864;9.200;2023-12-14T06:03:10;4.13;;;3.80;;
12118;SDS011;6123;48.864;9.200;2023-12-14T06:05:36;4.00;;;3.60;;
12118;SDS011;6123;48.864;9.200;2023-12-14T06:08:02;4.68;;;3.78;;
12118;SDS011;6123;48.864;9.200;2023-12-14T06:10:28;5.32;;;4.35;;
12118;SDS011;6123;48.864;9.200;2023-12-14T06:12:54;5.32;;;4.78;;
12118;SDS011;6123;48.864;9.200;2023-12-14T06:15:20;5.07;;;4.68;;
12118;SDS011;6123;48.864;9.200;2023-12-14T06:17:46;4.60;;;4.25;;
12118;SDS011;6123;48.864;9.200;2023-12-14T06:20:12;4.88;;;4.18;;
12118;SDS011;6123;48.864;9.200;2023-12-14T06:22:38;4.40;;;4.00;;
12118;SDS011;6123;48.864;9.200;2023-12-14T06:25:05;4.68;;;4.22;;
12118;SDS011;6123;48.864;9.200;2023-12-14T06:27:31;4.60;;;4.28;;
12118;SDS011;6123;48.864;9.200;2023-12-14T06:29:57;4.60;;;4.20;;
12118;SDS011;6123;48.864;9.200;2023-12-14T06:32:23;4.60;;;4.20;;
12118;SDS011;6123;48.864;9.200;2023-12-14T06:34:49;4.75;;;4.35;;
12118;SDS011;6123;48.864;9.200;2023-12-14T06:37:15;4.55;;;4.22;;
12118;SDS011;6123;48.864;9.200;2023-12-14T06:39:41;4.80;;;4.40;;
12118;SDS011;6123;48.864;9.200;2023-12-14T06:42:07;5.03;;;4.63;;
12118;SDS011;6123;48.864;9.200;2023-12-14T06:44:33;5.28;;;4.78;;
12118;SDS011;6123;48.864;9.200;2023-12-14T06:46:59;5.18;;;4.78;;
12118;SDS011;6123;48.864;9.200;2023-12-14T06:49:25;5.72;;;5.22;;
12118;SDS011;6123;48.864;9.200;2023-12-14T06:51:51;5.47;;;4.97;;
12118;SDS011;6123;48.864;9.200;2023-12-14T06:54:17;6.40;;;5.90;;
12118;SDS011;6123;48.864;9.200;2023-12-14T06:56:44;6.10;;;5.50;;
12118;SDS011;6123;48.864;9.200;2023-12-14T06:59:10;5.70;;;5.20;;
12118;SDS011;6123;48.864;9.200;2023-12-14T07:01:35;6.00;;;5.50;;
12118;SDS011;6123;48.864;9.200;2023-12-14T07:04:01;6.03;;;5.43;;
12118;SDS011;6123;48.864;9.200;2023-12-14T07:06:32;6.53;;;5.97;;
12118;SDS011;6123;48.864;9.200;2023-12-14T07:09:00;7.55;;;6.68;;
12118;SDS011;6123;48.864;9.200;2023-12-14T07:11:26;6.75;;;6.18;;
12118;SDS011;6123;48.864;9.200;2023-12-14T07:13:52;6.72;;;6.10;;
12118;SDS011;6123;48.864;9.200;2023-12-14T07:16:17;7.13;;;6.30;;
12118;SDS011;6123;48.864;9.200;2023-12-14T07:18:44;7.57;;;6.88;;
12118;SDS011;6123;48.864;9.200;2023-12-14T07:21:09;8.25;;;6.95;;
12118;SDS011;6123;48.864;9.200;2023-12-14T07:23:35;8.27;;;7.57;;
12118;SDS011;6123;48.864;9.200;2023-12-14T07:26:02;8.32;;;7.45;;
12118;SDS011;6123;48.864;9.200;2023-12-14T07:28:28;8.98;;;8.18;;
12118;SDS011;6123;48.864;9.200;2023-12-14T07:30:54;8.77;;;7.97;;
12118;SDS011;6123;48.864;9.200;2023-12-14T07:33:20;9.15;;;8.38;;
12118;SDS011;6123;48.864;9.200;2023-12-14T07:35:46;8.43;;;7.68;;
12118;SDS011;6123;48.864;9.200;2023-12-14T07:38:12;8.93;;;8.10;;
12118;SDS011;6123;48.864;9.200;2023-12-14T07:40:38;9.10;;;8.30;;
12118;SDS011;6123;48.864;9.200;2023-12-14T07:43:05;9.95;;;9.05;;
12118;SDS011;6123;48.864;9.200;2023-12-14T07:45:31;9.85;;;8.95;;
12118;SDS011;6123;48.864;9.200;2023-12-14T07:47:57;9.32;;;8.43;;
12118;SDS011;6123;48.864;9.200;2023-12-14T07:50:23;10.45;;;8.70;;
12118;SDS011;6123;48.864;9.200;2023-12-14T07:52:49;9.05;;;8.25;;
12118;SDS011;6123;48.864;9.200;2023-12-14T07:55:15;9.27;;;8.43;;
12118;SDS011;6123;48.864;9.200;2023-12-14T07:57:42;8.93;;;8.20;;
12118;SDS011;6123;48.864;9.200;2023-12-14T08:00:08;8.82;;;8.07;;
12118;SDS011;6123;48.864;9.200;2023-12-14T08:02:35;8.82;;;8.13;;
12118;SDS011;6123;48.864;9.200;2023-12-14T08:05:01;8.70;;;7.90;;
12118;SDS011;6123;48.864;9.200;2023-12-14T08:07:27;9.23;;;8.32;;
12118;SDS011;6123;48.864;9.200;2023-12-14T08:09:54;9.98;;;8.75;;
12118;SDS011;6123;48.864;9.200;2023-12-14T08:12:20;13.30;;;9.63;;
12118;SDS011;6123;48.864;9.200;2023-12-14T08:14:47;10.02;;;9.13;;
12118;SDS011;6123;48.864;9.200;2023-12-14T08:17:13;9.90;;;9.00;;
12118;SDS011;6123;48.864;9.200;2023-12-14T08:19:39;11.27;;;10.18;;
12118;SDS011;6123;48.864;9.200;2023-12-14T08:22:04;10.00;;;9.00;;
12118;SDS011;6123;48.864;9.200;2023-12-14T08:24:30;10.05;;;9.15;;
12118;SDS011;6123;48.864;9.200;2023-12-14T08:26:56;9.30;;;8.52;;
12118;SDS011;6123;48.864;9.200;2023-12-14T08:29:22;9.65;;;8.75;;
12118;SDS011;6123;48.864;9.200;2023-12-14T08:31:48;9.65;;;8.75;;
12118;SDS011;6123;48.864;9.200;2023-12-14T08:34:14;9.27;;;8.38;;
12118;SDS011;6123;48.864;9.200;2023-12-14T08:36:40;9.63;;;8.80;;
12118;SDS011;6123;48.864;9.200;2023-12-14T08:39:06;8.93;;;8.23;;
12118;SDS011;6123;48.864;9.200;2023-12-14T08:41:32;8.27;;;7.47;;
12118;SDS011;6123;48.864;9.200;2023-12-14T08:43:58;8.70;;;8.00;;
12118;SDS011;6123;48.864;9.200;2023-12-14T08:46:24;8.65;;;7.85;;
12118;SDS011;6123;48.864;9.200;2023-12-14T08:48:50;9.10;;;8.25;;
12118;SDS011;6123;48.864;9.200;2023-12-14T08:51:16;8.90;;;8.18;;
12118;SDS011;6123;48.864;9.200;2023-12-14T08:53:44;9.40;;;8.50;;
12118;SDS011;6123;48.864;9.200;2023-12-14T08:56:09;9.88;;;9.07;;
12118;SDS011;6123;48.864;9.200;2023-12-14T08:58:35;10.40;;;9.25;;
12118;SDS011;6123;48.864;9.200;2023-12-14T09:01:01;9.13;;;8.43;;
12118;SDS011;6123;48.864;9.200;2023-12-14T09:03:27;10.20;;;9.30;;
12118;SDS011;6123;48.864;9.200;2023-12-14T09:05:53;10.45;;;9.45;;
12118;SDS011;6123;48.864;9.200;2023-12-14T09:08:19;11.13;;;9.82;;
12118;SDS011;6123;48.864;9.200;2023-12-14T09:10:45;13.90;;;12.63;;
12118;SDS011;6123;48.864;9.200;2023-12-14T09:13:11;11.90;;;10.80;;
12118;SDS011;6123;48.864;9.200;2023-12-14T09:15:37;10.52;;;9.43;;
12118;SDS011;6123;48.864;9.200;2023-12-14T09:18:03;10.85;;;9.95;;
12118;SDS011;6123;48.864;9.200;2023-12-14T09:20:30;10.88;;;9.88;;
12118;SDS011;6123;48.864;9.200;2023-12-14T09:22:56;10.77;;;9.82;;
12118;SDS011;6123;48.864;9.200;2023-12-14T09:25:22;11.95;;;10.80;;
12118;SDS011;6123;48.864;9.200;2023-12-14T09:27:49;12.20;;;11.02;;
12118;SDS011;6123;48.864;9.200;2023-12-14T09:30:15;11.30;;;10.20;;
12118;SDS011;6123;48.864;9.200;2023-12-14T09:32:42;13.02;;;11.73;;
12118;SDS011;6123;48.864;9.200;2023-12-14T09:35:08;11.07;;;9.95;;
12118;SDS011;6123;48.864;9.200;2023-12-14T09:37:34;10.55;;;9.55;;
12118;SDS011;6123;48.864;9.200;2023-12-14T09:40:00;10.90;;;9.93;;
12118;SDS011;6123;48.864;9.200;2023-12-14T09:42:27;11.70;;;10.70;;
12118;SDS011;6123;48.864;9.200;2023-12-14T09:44:53;10.40;;;9.45;;
12118;SDS011;6123;48.864;9.200;2023-12-14T09:47:21;11.88;;;10.80;;
12118;SDS011;6123;48.864;9.200;2023-12-14T09:49:47;12.27;;;11.27;;
12118;SDS011;6123;48.864;9.200;2023-12-14T09:52:13;11.88;;;10.80;;
12118;SDS011;6123;48.864;9.200;2023-12-14T09:54:39;12.82;;;11.65;;
12118;SDS011;6123;48.864;9.200;2023-12-14T09:57:05;10.93;;;9.95;;
12118;SDS011;6123;48.864;9.200;2023-12-14T09:59:31;11.00;;;10.10;;
12118;SDS011;6123;48.864;9.200;2023-12-14T10:02:09;10.85;;;9.85;;
12118;SDS011;6123;48.864;9.200;2023-12-14T10:04:36;10.70;;;9.80;;
12118;SDS011;6123;48.864;9.200;2023-12-14T10:07:02;11.63;;;10.48;;
12118;SDS011;6123;48.864;9.200;2023-12-14T10:09:32;11.38;;;9.95;;
12118;SDS011;6123;48.864;9.200;2023-12-14T10:12:04;9.90;;;9.00;;
12118;SDS011;6123;48.864;9.200;2023-12-14T10:14:31;10.77;;;9.73;;
12118;SDS011;6123;48.864;9.200;2023-12-14T10:16:57;10.93;;;9.93;;
12118;SDS011;6123;48.864;9.200;2023-12-14T10:19:23;10.48;;;9.48;;
12118;SDS011;6123;48.864;9.200;2023-12-14T10:21:50;9.18;;;8.18;;
12118;SDS011;6123;48.864;9.200;2023-12-14T10:24:16;8.30;;;6.88;;
12118;SDS011;6123;48.864;9.200;2023-12-14T10:26:44;8.52;;;7.20;;
12118;SDS011;6123;48.864;9.200;2023-12-14T10:29:11;7.88;;;7.18;;
12118;SDS011;6123;48.864;9.200;2023-12-14T10:31:37;8.93;;;8.02;;
12118;SDS011;6123;48.864;9.200;2023-12-14T10:34:06;7.90;;;7.10;;
12118;SDS011;6123;48.864;9.200;2023-12-14T10:36:32;7.55;;;6.85;;
12118;SDS011;6123;48.864;9.200;2023-12-14T10:39:00;7.72;;;6.88;;
12118;SDS011;6123;48.864;9.200;2023-12-14T10:41:26;7.20;;;6.50;;
12118;SDS011;6123;48.864;9.200;2023-12-14T10:43:56;9.98;;;6.63;;
12118;SDS011;6123;48.864;9.200;2023-12-14T10:46:25;8.07;;;7.25;;
12118;SDS011;6123;48.864;9.200;2023-12-14T10:48:51;8.90;;;7.85;;
12118;SDS011;6123;48.864;9.200;2023-12-14T10:51:17;4.22;;;3.83;;
12118;SDS011;6123;48.864;9.200;2023-12-14T10:53:44;8.20;;;6.72;;
12118;SDS011;6123;48.864;9.200;2023-12-14T10:56:14;7.40;;;6.80;;
12118;SDS011;6123;48.864;9.200;2023-12-14T10:58:49;6.90;;;6.30;;
12118;SDS011;6123;48.864;9.200;2023-12-14T11:01:17;4.97;;;3.80;;
12118;SDS011;6123;48.864;9.200;2023-12-14T11:03:44;7.65;;;6.10;;
12118;SDS011;6123;48.864;9.200;2023-12-14T11:06:20;6.75;;;5.90;;
12118;SDS011;6123;48.864;9.200;2023-12-14T11:08:47;5.35;;;4.88;;
12118;SDS011;6123;48.864;9.200;2023-12-14T11:11:13;7.07;;;6.15;;
12118;SDS011;6123;48.864;9.200;2023-12-14T11:13:45;6.95;;;6.25;;
12118;SDS011;6123;48.864;9.200;2023-12-14T11:16:12;7.10;;;6.50;;
12118;SDS011;6123;48.864;9.200;2023-12-14T11:18:40;7.18;;;6.47;;
12118;SDS011;6123;48.864;9.200;2023-12-14T11:21:06;7.25;;;6.53;;
12118;SDS011;6123;48.864;9.200;2023-12-14T11:23:35;7.88;;;6.82;;
12118;SDS011;6123;48.864;9.200;2023-12-14T11:26:05;7.68;;;4.72;;
12118;SDS011;6123;48.864;9.200;2023-12-14T11:28:32;9.35;;;8.38;;
12118;SDS011;6123;48.864;9.200;2023-12-14T11:30:59;8.52;;;7.68;;
12118;SDS011;6123;48.864;9.200;2023-12-14T11:33:26;7.55;;;6.85;;
12118;SDS011;6123;48.864;9.200;2023-12-14T11:35:54;8.73;;;7.03;;
12118;SDS011;6123;48.864;9.200;2023-12-14T11:38:22;7.07;;;6.45;;
12118;SDS011;6123;48.864;9.200;2023-12-14T11:40:49;8.27;;;6.57;;
12118;SDS011;6123;48.864;9.200;2023-12-14T11:43:15;8.63;;;7.82;;
12118;SDS011;6123;48.864;9.200;2023-12-14T11:45:41;9.30;;;7.70;;
12118;SDS011;6123;48.864;9.200;2023-12-14T11:48:11;9.27;;;8.13;;
12118;SDS011;6123;48.864;9.200;2023-12-14T11:50:37;8.60;;;7.80;;
12118;SDS011;6123;48.864;9.200;2023-12-14T11:53:04;8.00;;;7.30;;
12118;SDS011;6123;48.864;9.200;2023-12-14T11:55:31;7.68;;;7.00;;
12118;SDS011;6123;48.864;9.200;2023-12-14T11:57:57;7.63;;;6.95;;
12118;SDS011;6123;48.864;9.200;2023-12-14T12:00:24;7.35;;;6.68;;
12118;SDS011;6123;48.864;9.200;2023-12-14T12:02:50;7.75;;;7.03;;
12118;SDS011;6123;48.864;9.200;2023-12-14T12:05:16;8.20;;;7.45;;
12118;SDS011;6123;48.864;9.200;2023-12-14T12:07:45;6.22;;;5.63;;
12118;SDS011;6123;48.864;9.200;2023-12-14T12:10:11;5.70;;;5.22;;
12118;SDS011;6123;48.864;9.200;2023-12-14T12:12:37;6.10;;;5.50;;
12118;SDS011;6123;48.864;9.200;2023-12-14T12:15:04;6.03;;;5.53;;
12118;SDS011;6123;48.864;9.200;2023-12-14T12:17:30;5.32;;;4.82;;
12118;SDS011;6123;48.864;9.200;2023-12-14T12:20:03;4.78;;;4.35;;
12118;SDS011;6123;48.864;9.200;2023-12-14T12:22:29;4.13;;;3.83;;
12118;SDS011;6123;48.864;9.200;2023-12-14T12:24:55;5.25;;;4.70;;
12118;SDS011;6123;48.864;9.200;2023-12-14T12:27:22;4.35;;;3.95;;
12118;SDS011;6123;48.864;9.200;2023-12-14T12:29:48;6.30;;;4.47;;
12118;SDS011;6123;48.864;9.200;2023-12-14T12:32:15;4.75;;;3.63;;
12118;SDS011;6123;48.864;9.200;2023-12-14T12:34:41;4.82;;;4.28;;
12118;SDS011;6123;48.864;9.200;2023-12-14T12:37:07;2.88;;;2.67;;
12118;SDS011;6123;48.864;9.200;2023-12-14T12:39:33;2.35;;;2.15;;
12118;SDS011;6123;48.864;9.200;2023-12-14T12:41:59;2.95;;;2.75;;
12118;SDS011;6123;48.864;9.200;2023-12-14T12:44:25;3.65;;;3.33;;
12118;SDS011;6123;48.864;9.200;2023-12-14T12:46:51;4.13;;;3.53;;
12118;SDS011;6123;48.864;9.200;2023-12-14T12:49:21;4.30;;;3.90;;
12118;SDS011;6123;48.864;9.200;2023-12-14T12:51:47;4.20;;;3.80;;
12118;SDS011;6123;48.864;9.200;2023-12-14T12:54:13;4.00;;;3.65;;
12118;SDS011;6123;48.864;9.200;2023-12-14T12:56:40;3.53;;;3.22;;
12118;SDS011;6123;48.864;9.200;2023-12-14T12:59:07;3.88;;;3.58;;
12118;SDS011;6123;48.864;9.200;2023-12-14T13:01:34;4.50;;;3.85;;
12118;SDS011;6123;48.864;9.200;2023-12-14T13:04:00;3.75;;;3.42;;
12118;SDS011;6123;48.864;9.200;2023-12-14T13:06:26;3.97;;;3.63;;
12118;SDS011;6123;48.864;9.200;2023-12-14T13:08:53;4.40;;;4.00;;
12118;SDS011;6123;48.864;9.200;2023-12-14T13:11:19;4.70;;;4.28;;
12118;SDS011;6123;48.864;9.200;2023-12-14T13:13:45;4.68;;;4.28;;
12118;SDS011;6123;48.864;9.200;2023-12-14T13:16:11;3.75;;;3.45;;
12118;SDS011;6123;48.864;9.200;2023-12-14T13:18:39;5.13;;;3.50;;
12118;SDS011;6123;48.864;9.200;2023-12-14T13:21:05;3.13;;;2.53;;
12118;SDS011;6123;48.864;9.200;2023-12-14T13:23:31;3.25;;;3.03;;
12118;SDS011;6123;48.864;9.200;2023-12-14T13:25:57;4.07;;;3.70;;
12118;SDS011;6123;48.864;9.200;2023-12-14T13:28:23;4.85;;;3.45;;
12118;SDS011;6123;48.864;9.200;2023-12-14T13:30:49;3.70;;;3.40;;
12118;SDS011;6123;48.864;9.200;2023-12-14T13:33:15;4.28;;;3.67;;
12118;SDS011;6123;48.864;9.200;2023-12-14T13:35:41;3.38;;;3.17;;
12118;SDS011;6123;48.864;9.200;2023-12-14T13:38:07;2.17;;;1.98;;
12118;SDS011;6123;48.864;9.200;2023-12-14T13:40:33;2.80;;;2.60;;
12118;SDS011;6123;48.864;9.200;2023-12-14T13:43:00;2.90;;;2.70;;
12118;SDS011;6123;48.864;9.200;2023-12-14T13:45:28;4.28;;;2.65;;
12118;SDS011;6123;48.864;9.200;2023-12-14T13:47:55;3.00;;;2.75;;
12118;SDS011;6123;48.864;9.200;2023-12-14T13:50:23;3.70;;;3.20;;
12118;SDS011;6123;48.864;9.200;2023-12-14T13:52:51;3.78;;;3.30;;
12118;SDS011;6123;48.864;9.200;2023-12-14T13:55:17;3.60;;;2.90;;
12118;SDS011;6123;48.864;9.200;2023-12-14T13:57:43;5.55;;;3.53;;
12118;SDS011;6123;48.864;9.200;2023-12-14T14:00:10;4.35;;;3.95;;
12118;SDS011;6123;48.864;9.200;2023-12-14T14:02:36;4.20;;;3.90;;
12118;SDS011;6123;48.864;9.200;2023-12-14T14:05:02;4.80;;;4.10;;
12118;SDS011;6123;48.864;9.200;2023-12-14T14:07:28;4.57;;;4.18;;
12118;SDS011;6123;48.864;9.200;2023-12-14T14:09:54;5.05;;;3.80;;
12118;SDS011;6123;48.864;9.200;2023-12-14T14:12:20;5.35;;;4.85;;
12118;SDS011;6123;48.864;9.200;2023-12-14T14:14:46;5.85;;;5.28;;
12118;SDS011;6123;48.864;9.200;2023-12-14T14:17:12;6.15;;;5.65;;
12118;SDS011;6123;48.864;9.200;2023-12-14T14:19:38;6.10;;;5.50;;
12118;SDS011;6123;48.864;9.200;2023-12-14T14:22:04;5.72;;;5.22;;
12118;SDS011;6123;48.864;9.200;2023-12-14T14:24:30;6.45;;;5.80;;
12118;SDS011;6123;48.864;9.200;2023-12-14T14:26:56;7.85;;;6.25;;
12118;SDS011;6123;48.864;9.200;2023-12-14T14:29:22;7.30;;;6.70;;
12118;SDS011;6123;48.864;9.200;2023-12-14T14:31:48;7.25;;;6.55;;
12118;SDS011;6123;48.864;9.200;2023-12-14T14:34:14;8.10;;;6.65;;
12118;SDS011;6123;48.864;9.200;2023-12-14T14:36:40;6.95;;;6.35;;
12118;SDS011;6123;48.864;9.200;2023-12-14T14:39:06;6.70;;;6.15;;
12118;SDS011;6123;48.864;9.200;2023-12-14T14:41:33;7.72;;;7.03;;
12118;SDS011;6123;48.864;9.200;2023-12-14T14:43:59;7.05;;;6.45;;
12118;SDS011;6123;48.864;9.200;2023-12-14T14:46:25;6.95;;;6.30;;
12118;SDS011;6123;48.864;9.200;2023-12-14T14:48:51;7.30;;;6.70;;
12118;SDS011;6123;48.864;9.200;2023-12-14T14:51:16;10.32;;;7.63;;
12118;SDS011;6123;48.864;9.200;2023-12-14T14:53:42;8.75;;;6.53;;